sensor_id;sensor_type;location;lat;lon;timestamp;pressure;altitude;pressure_sealevel;temperature;humidity
66887;BME280;67239;51.680;5.976;2024-01-10T00:02:06;102995.69;;;-5.62;59.50
66887;BME280;67239;51.680;5.976;2024-01-10T00:04:33;102993.91;;;-5.63;59.89
66887;BME280;67239;51.680;5.976;2024-01-10T00:07:00;102998.06;;;-5.65;60.03
66887;BME280;67239;51.680;5.976;2024-01-10T00:09:27;102993.47;;;-5.69;60.11
66887;BME280;67239;51.680;5.976;2024-01-10T00:11:54;102995.13;;;-5.69;60.10
66887;BME280;67239;51.680;5.976;2024-01-10T00:14:21;102984.84;;;-5.69;60.00
66887;BME280;67239;51.680;5.976;2024-01-10T00:16:48;102988.34;;;-5.69;60.11
66887;BME280;67239;51.680;5.976;2024-01-10T00:19:15;102978.84;;;-5.70;60.19
66887;BME280;67239;51.680;5.976;2024-01-10T00:21:42;102980.53;;;-5.70;60.17
66887;BME280;67239;51.680;5.976;2024-01-10T00:24:10;102982.09;;;-5.72;60.09
66887;BME280;67239;51.680;5.976;2024-01-10T00:26:37;102976.03;;;-5.73;60.00
66887;BME280;67239;51.680;5.976;2024-01-10T00:29:04;102969.44;;;-5.69;59.86
66887;BME280;67239;51.680;5.976;2024-01-10T00:31:31;102967.09;;;-5.66;59.82
66887;BME280;67239;51.680;5.976;2024-01-10T00:33:58;102960.47;;;-5.63;59.59
66887;BME280;67239;51.680;5.976;2024-01-10T00:36:26;102960.47;;;-5.63;59.55
66887;BME280;67239;51.680;5.976;2024-01-10T00:38:53;102957.03;;;-5.63;59.62
66887;BME280;67239;51.680;5.976;2024-01-10T00:41:20;102960.47;;;-5.63;59.73
66887;BME280;67239;51.680;5.976;2024-01-10T00:43:47;102952.78;;;-5.63;59.94
66887;BME280;67239;51.680;5.976;2024-01-10T00:46:14;102955.47;;;-5.61;60.03
66887;BME280;67239;51.680;5.976;2024-01-10T00:48:41;102968.41;;;-5.59;59.86
66887;BME280;67239;51.680;5.976;2024-01-10T00:51:09;102955.56;;;-5.59;59.99
66887;BME280;67239;51.680;5.976;2024-01-10T00:53:37;102950.53;;;-5.58;60.27
66887;BME280;67239;51.680;5.976;2024-01-10T00:56:07;102950.44;;;-5.59;60.57
66887;BME280;67239;51.680;5.976;2024-01-10T00:58:35;102947.06;;;-5.58;60.56
66887;BME280;67239;51.680;5.976;2024-01-10T01:01:02;102948.41;;;-5.64;60.73
66887;BME280;67239;51.680;5.976;2024-01-10T01:03:30;102949.09;;;-5.66;60.47
66887;BME280;67239;51.680;5.976;2024-01-10T01:05:57;102950.00;;;-5.66;60.98
66887;BME280;67239;51.680;5.976;2024-01-10T01:08:24;102954.94;;;-5.69;60.84
66887;BME280;67239;51.680;5.976;2024-01-10T01:10:51;102956.81;;;-5.66;60.78
66887;BME280;67239;51.680;5.976;2024-01-10T01:13:18;102960.28;;;-5.66;60.91
66887;BME280;67239;51.680;5.976;2024-01-10T01:15:45;102947.31;;;-5.67;61.05
66887;BME280;67239;51.680;5.976;2024-01-10T01:18:12;102950.66;;;-5.68;61.26
66887;BME280;67239;51.680;5.976;2024-01-10T01:20:40;102958.19;;;-5.71;61.19
66887;BME280;67239;51.680;5.976;2024-01-10T01:23:07;102951.25;;;-5.72;61.15
66887;BME280;67239;51.680;5.976;2024-01-10T01:25:34;102945.19;;;-5.73;61.76
66887;BME280;67239;51.680;5.976;2024-01-10T01:28:01;102932.47;;;-5.71;61.88
66887;BME280;67239;51.680;5.976;2024-01-10T01:30:28;102934.94;;;-5.73;61.84
66887;BME280;67239;51.680;5.976;2024-01-10T01:32:56;102936.38;;;-5.77;61.76
66887;BME280;67239;51.680;5.976;2024-01-10T01:35:23;102941.31;;;-5.80;61.94
66887;BME280;67239;51.680;5.976;2024-01-10T01:37:50;102939.41;;;-5.82;62.33
66887;BME280;67239;51.680;5.976;2024-01-10T01:40:19;102944.69;;;-5.81;62.53
66887;BME280;67239;51.680;5.976;2024-01-10T01:42:46;102941.31;;;-5.80;62.55
66887;BME280;67239;51.680;5.976;2024-01-10T01:45:13;102946.25;;;-5.83;62.61
66887;BME280;67239;51.680;5.976;2024-01-10T01:47:40;102944.56;;;-5.82;62.91
66887;BME280;67239;51.680;5.976;2024-01-10T01:50:08;102934.97;;;-5.85;62.97
66887;BME280;67239;51.680;5.976;2024-01-10T01:52:37;102940.56;;;-5.90;63.02
66887;BME280;67239;51.680;5.976;2024-01-10T01:55:06;102935.53;;;-5.89;63.53
66887;BME280;67239;51.680;5.976;2024-01-10T01:57:35;102939.00;;;-5.88;63.38
66887;BME280;67239;51.680;5.976;2024-01-10T02:00:05;102934.63;;;-5.89;63.55
66887;BME280;67239;51.680;5.976;2024-01-10T02:02:34;102933.63;;;-5.92;63.54
66887;BME280;67239;51.680;5.976;2024-01-10T02:05:03;102937.13;;;-5.91;63.66
66887;BME280;67239;51.680;5.976;2024-01-10T02:07:30;102928.41;;;-5.93;64.00
66887;BME280;67239;51.680;5.976;2024-01-10T02:09:58;102934.41;;;-5.93;63.90
66887;BME280;67239;51.680;5.976;2024-01-10T02:12:25;102929.28;;;-5.93;63.85
66887;BME280;67239;51.680;5.976;2024-01-10T02:14:52;102925.16;;;-5.90;63.95
66887;BME280;67239;51.680;5.976;2024-01-10T02:17:19;102930.28;;;-5.90;63.68
66887;BME280;67239;51.680;5.976;2024-01-10T02:19:46;102924.03;;;-5.94;63.79
66887;BME280;67239;51.680;5.976;2024-01-10T02:22:14;102929.28;;;-5.93;63.99
66887;BME280;67239;51.680;5.976;2024-01-10T02:24:41;102919.78;;;-5.94;63.94
66887;BME280;67239;51.680;5.976;2024-01-10T02:27:08;102918.00;;;-5.95;63.85
66887;BME280;67239;51.680;5.976;2024-01-10T02:29:35;102920.69;;;-5.93;63.67
66887;BME280;67239;51.680;5.976;2024-01-10T02:32:02;102915.66;;;-5.92;63.60
66887;BME280;67239;51.680;5.976;2024-01-10T02:34:30;102916.56;;;-5.91;63.65
66887;BME280;67239;51.680;5.976;2024-01-10T02:36:57;102916.56;;;-5.91;64.02
66887;BME280;67239;51.680;5.976;2024-01-10T02:39:24;102901.25;;;-5.89;63.85
66887;BME280;67239;51.680;5.976;2024-01-10T02:41:52;102907.38;;;-5.87;63.88
66887;BME280;67239;51.680;5.976;2024-01-10T02:44:19;102903.91;;;-5.88;63.61
66887;BME280;67239;51.680;5.976;2024-01-10T02:46:46;102903.91;;;-5.88;63.81
66887;BME280;67239;51.680;5.976;2024-01-10T02:49:13;102914.97;;;-5.89;63.73
66887;BME280;67239;51.680;5.976;2024-01-10T02:51:40;102916.66;;;-5.89;63.73
66887;BME280;67239;51.680;5.976;2024-01-10T02:54:07;102918.13;;;-5.93;64.03
66887;BME280;67239;51.680;5.976;2024-01-10T02:56:35;102917.03;;;-5.97;64.17
66887;BME280;67239;51.680;5.976;2024-01-10T02:59:02;102927.00;;;-6.01;64.65
66887;BME280;67239;51.680;5.976;2024-01-10T03:01:29;102920.84;;;-6.03;64.65
66887;BME280;67239;51.680;5.976;2024-01-10T03:03:56;102922.75;;;-6.01;64.76
66887;BME280;67239;51.680;5.976;2024-01-10T03:06:24;102918.38;;;-6.02;64.97
66887;BME280;67239;51.680;5.976;2024-01-10T03:08:51;102919.94;;;-6.04;65.17
66887;BME280;67239;51.680;5.976;2024-01-10T03:11:18;102921.63;;;-6.04;65.17
66887;BME280;67239;51.680;5.976;2024-01-10T03:13:51;102918.06;;;-6.06;65.19
66887;BME280;67239;51.680;5.976;2024-01-10T03:16:27;102910.25;;;-6.08;65.08
66887;BME280;67239;51.680;5.976;2024-01-10T03:18:54;102910.44;;;-6.05;65.26
66887;BME280;67239;51.680;5.976;2024-01-10T03:21:22;102911.25;;;-6.06;65.51
66887;BME280;67239;51.680;5.976;2024-01-10T03:23:57;102916.63;;;-6.15;65.46
66887;BME280;67239;51.680;5.976;2024-01-10T03:26:25;102907.81;;;-6.18;66.07
66887;BME280;67239;51.680;5.976;2024-01-10T03:28:53;102907.13;;;-6.16;66.21
66887;BME280;67239;51.680;5.976;2024-01-10T03:31:21;102898.41;;;-6.18;66.19
66887;BME280;67239;51.680;5.976;2024-01-10T03:33:48;102893.28;;;-6.18;66.38
66887;BME280;67239;51.680;5.976;2024-01-10T03:36:17;102893.09;;;-6.21;66.60
66887;BME280;67239;51.680;5.976;2024-01-10T03:38:45;102895.75;;;-6.19;66.41
66887;BME280;67239;51.680;5.976;2024-01-10T03:41:18;102885.47;;;-6.19;66.44
66887;BME280;67239;51.680;5.976;2024-01-10T03:43:47;102891.50;;;-6.19;66.67
66887;BME280;67239;51.680;5.976;2024-01-10T03:46:15;102877.19;;;-6.15;66.59
66887;BME280;67239;51.680;5.976;2024-01-10T03:48:43;102883.16;;;-6.16;66.70
66887;BME280;67239;51.680;5.976;2024-01-10T03:51:18;102884.81;;;-6.17;67.16
66887;BME280;67239;51.680;5.976;2024-01-10T03:53:45;102877.88;;;-6.18;67.16
66887;BME280;67239;51.680;5.976;2024-01-10T03:56:13;102882.00;;;-6.20;67.48
66887;BME280;67239;51.680;5.976;2024-01-10T03:58:40;102874.88;;;-6.24;67.55
66887;BME280;67239;51.680;5.976;2024-01-10T04:01:08;102881.56;;;-6.26;67.37
66887;BME280;67239;51.680;5.976;2024-01-10T04:03:36;102875.34;;;-6.30;67.39
66887;BME280;67239;51.680;5.976;2024-01-10T04:06:03;102878.78;;;-6.29;68.07
66887;BME280;67239;51.680;5.976;2024-01-10T04:08:31;102885.50;;;-6.31;68.12
66887;BME280;67239;51.680;5.976;2024-01-10T04:10:58;102876.81;;;-6.33;68.12
66887;BME280;67239;51.680;5.976;2024-01-10T04:13:25;102870.75;;;-6.34;68.46
66887;BME280;67239;51.680;5.976;2024-01-10T04:15:53;102874.22;;;-6.33;68.50
66887;BME280;67239;51.680;5.976;2024-01-10T04:18:20;102861.94;;;-6.37;68.73
66887;BME280;67239;51.680;5.976;2024-01-10T04:20:49;102861.94;;;-6.37;68.77
66887;BME280;67239;51.680;5.976;2024-01-10T04:23:16;102858.59;;;-6.36;68.79
66887;BME280;67239;51.680;5.976;2024-01-10T04:25:44;102860.50;;;-6.34;69.16
66887;BME280;67239;51.680;5.976;2024-01-10T04:28:11;102853.38;;;-6.38;69.17
66887;BME280;67239;51.680;5.976;2024-01-10T04:30:38;102855.81;;;-6.40;69.27
66887;BME280;67239;51.680;5.976;2024-01-10T04:33:05;102850.56;;;-6.41;69.48
66887;BME280;67239;51.680;5.976;2024-01-10T04:35:33;102848.00;;;-6.41;69.86
66887;BME280;67239;51.680;5.976;2024-01-10T04:38:00;102837.75;;;-6.41;69.79
66887;BME280;67239;51.680;5.976;2024-01-10T04:40:27;102846.44;;;-6.39;69.75
66887;BME280;67239;51.680;5.976;2024-01-10T04:42:54;102848.00;;;-6.41;69.66
66887;BME280;67239;51.680;5.976;2024-01-10T04:45:21;102847.78;;;-6.44;69.52
66887;BME280;67239;51.680;5.976;2024-01-10T04:47:48;102850.34;;;-6.44;70.11
66887;BME280;67239;51.680;5.976;2024-01-10T04:50:15;102853.34;;;-6.50;70.08
66887;BME280;67239;51.680;5.976;2024-01-10T04:52:43;102844.69;;;-6.52;70.16
66887;BME280;67239;51.680;5.976;2024-01-10T04:55:10;102842.00;;;-6.53;70.51
66887;BME280;67239;51.680;5.976;2024-01-10T04:57:38;102846.09;;;-6.56;70.55
66887;BME280;67239;51.680;5.976;2024-01-10T05:00:05;102848.69;;;-6.56;70.69
66887;BME280;67239;51.680;5.976;2024-01-10T05:02:33;102851.81;;;-6.60;70.94
66887;BME280;67239;51.680;5.976;2024-01-10T05:05:00;102853.38;;;-6.62;71.02
66887;BME280;67239;51.680;5.976;2024-01-10T05:07:28;102852.94;;;-6.68;70.83
66887;BME280;67239;51.680;5.976;2024-01-10T05:09:55;102861.09;;;-6.74;71.25
66887;BME280;67239;51.680;5.976;2024-01-10T05:12:22;102861.63;;;-6.78;71.36
66887;BME280;67239;51.680;5.976;2024-01-10T05:14:50;102864.97;;;-6.79;71.90
66887;BME280;67239;51.680;5.976;2024-01-10T05:17:17;102877.47;;;-6.83;71.48
66887;BME280;67239;51.680;5.976;2024-01-10T05:19:45;102873.69;;;-6.89;71.71
66887;BME280;67239;51.680;5.976;2024-01-10T05:22:13;102860.72;;;-6.90;72.06
66887;BME280;67239;51.680;5.976;2024-01-10T05:24:40;102869.66;;;-6.85;72.13
66887;BME280;67239;51.680;5.976;2024-01-10T05:27:07;102866.44;;;-6.82;72.31
66887;BME280;67239;51.680;5.976;2024-01-10T05:29:34;102862.97;;;-6.83;72.68
66887;BME280;67239;51.680;5.976;2024-01-10T05:32:01;102855.50;;;-6.80;72.54
66887;BME280;67239;51.680;5.976;2024-01-10T05:34:28;102852.94;;;-6.80;72.57
66887;BME280;67239;51.680;5.976;2024-01-10T05:36:56;102854.63;;;-6.80;72.62
66887;BME280;67239;51.680;5.976;2024-01-10T05:39:23;102852.72;;;-6.83;72.83
66887;BME280;67239;51.680;5.976;2024-01-10T05:41:50;102861.06;;;-6.86;72.90
66887;BME280;67239;51.680;5.976;2024-01-10T05:44:17;102856.25;;;-6.81;73.85
66887;BME280;67239;51.680;5.976;2024-01-10T05:46:44;102858.63;;;-6.72;74.20
66887;BME280;67239;51.680;5.976;2024-01-10T05:49:12;102853.72;;;-6.69;74.34
66887;BME280;67239;51.680;5.976;2024-01-10T05:51:39;102858.84;;;-6.69;73.61
66887;BME280;67239;51.680;5.976;2024-01-10T05:54:06;102854.03;;;-6.76;73.03
66887;BME280;67239;51.680;5.976;2024-01-10T05:56:34;102857.19;;;-6.80;72.79
66887;BME280;67239;51.680;5.976;2024-01-10T05:59:01;102858.50;;;-6.86;73.27
66887;BME280;67239;51.680;5.976;2024-01-10T06:01:28;102852.25;;;-6.89;73.25
66887;BME280;67239;51.680;5.976;2024-01-10T06:03:55;102853.16;;;-6.89;72.88
66887;BME280;67239;51.680;5.976;2024-01-10T06:06:23;102849.81;;;-6.88;73.11
66887;BME280;67239;51.680;5.976;2024-01-10T06:08:51;102850.59;;;-6.89;73.17
66887;BME280;67239;51.680;5.976;2024-01-10T06:11:19;102854.13;;;-6.87;73.33
66887;BME280;67239;51.680;5.976;2024-01-10T06:13:46;102852.38;;;-6.88;73.02
66887;BME280;67239;51.680;5.976;2024-01-10T06:16:23;102855.38;;;-6.81;73.28
66887;BME280;67239;51.680;5.976;2024-01-10T06:18:50;102850.59;;;-6.77;73.53
66887;BME280;67239;51.680;5.976;2024-01-10T06:21:17;102850.81;;;-6.74;73.72
66887;BME280;67239;51.680;5.976;2024-01-10T06:23:44;102843.47;;;-6.69;73.66
66887;BME280;67239;51.680;5.976;2024-01-10T06:26:11;102848.78;;;-6.66;73.01
66887;BME280;67239;51.680;5.976;2024-01-10T06:28:39;102847.91;;;-6.66;72.98
66887;BME280;67239;51.680;5.976;2024-01-10T06:31:06;102847.13;;;-6.65;72.99
66887;BME280;67239;51.680;5.976;2024-01-10T06:33:38;102842.00;;;-6.65;72.81
66887;BME280;67239;51.680;5.976;2024-01-10T06:36:06;102846.91;;;-6.68;72.51
66887;BME280;67239;51.680;5.976;2024-01-10T06:38:33;102831.97;;;-6.74;72.42
66887;BME280;67239;51.680;5.976;2024-01-10T06:41:00;102835.09;;;-6.78;72.29
66887;BME280;67239;51.680;5.976;2024-01-10T06:43:27;102841.69;;;-6.82;72.40
66887;BME280;67239;51.680;5.976;2024-01-10T06:45:55;102846.69;;;-6.83;72.63
66887;BME280;67239;51.680;5.976;2024-01-10T06:48:22;102851.03;;;-6.82;72.76
66887;BME280;67239;51.680;5.976;2024-01-10T06:50:50;102843.00;;;-6.87;72.76
66887;BME280;67239;51.680;5.976;2024-01-10T06:53:17;102851.47;;;-6.88;72.86
66887;BME280;67239;51.680;5.976;2024-01-10T06:55:45;102849.69;;;-6.89;73.29
66887;BME280;67239;51.680;5.976;2024-01-10T06:58:12;102849.59;;;-6.91;73.14
66887;BME280;67239;51.680;5.976;2024-01-10T07:00:39;102841.13;;;-6.90;73.15
66887;BME280;67239;51.680;5.976;2024-01-10T07:03:06;102838.66;;;-6.88;73.40
66887;BME280;67239;51.680;5.976;2024-01-10T07:05:34;102832.66;;;-6.89;73.73
66887;BME280;67239;51.680;5.976;2024-01-10T07:08:01;102840.34;;;-6.89;73.74
66887;BME280;67239;51.680;5.976;2024-01-10T07:10:30;102840.19;;;-6.90;73.44
66887;BME280;67239;51.680;5.976;2024-01-10T07:12:57;102840.19;;;-6.90;73.63
66887;BME280;67239;51.680;5.976;2024-01-10T07:15:24;102849.34;;;-6.94;73.78
66887;BME280;67239;51.680;5.976;2024-01-10T07:17:51;102852.06;;;-6.92;73.96
66887;BME280;67239;51.680;5.976;2024-01-10T07:20:19;102850.91;;;-6.96;73.88
66887;BME280;67239;51.680;5.976;2024-01-10T07:22:46;102859.28;;;-6.98;74.31
66887;BME280;67239;51.680;5.976;2024-01-10T07:25:13;102857.47;;;-6.99;74.33
66887;BME280;67239;51.680;5.976;2024-01-10T07:27:41;102864.16;;;-7.02;74.30
66887;BME280;67239;51.680;5.976;2024-01-10T07:30:09;102866.72;;;-7.02;74.54
66887;BME280;67239;51.680;5.976;2024-01-10T07:32:43;102860.97;;;-6.99;74.75
66887;BME280;67239;51.680;5.976;2024-01-10T07:35:12;102861.06;;;-6.97;74.51
66887;BME280;67239;51.680;5.976;2024-01-10T07:37:41;102868.66;;;-6.99;74.64
66887;BME280;67239;51.680;5.976;2024-01-10T07:40:09;102872.88;;;-6.99;74.69
66887;BME280;67239;51.680;5.976;2024-01-10T07:42:37;102878.44;;;-7.05;74.52
66887;BME280;67239;51.680;5.976;2024-01-10T07:45:06;102868.84;;;-7.08;74.90
66887;BME280;67239;51.680;5.976;2024-01-10T07:47:35;102866.53;;;-7.05;74.64
66887;BME280;67239;51.680;5.976;2024-01-10T07:52:34;102852.34;;;-6.99;75.03
66887;BME280;67239;51.680;5.976;2024-01-10T07:55:02;102854.16;;;-6.98;75.21
66887;BME280;67239;51.680;5.976;2024-01-10T07:57:33;102854.91;;;-6.99;74.98
66887;BME280;67239;51.680;5.976;2024-01-10T08:00:00;102853.47;;;-6.96;74.89
66887;BME280;67239;51.680;5.976;2024-01-10T08:02:34;102852.69;;;-6.95;75.07
66887;BME280;67239;51.680;5.976;2024-01-10T08:05:05;102851.81;;;-6.95;75.19
66887;BME280;67239;51.680;5.976;2024-01-10T08:07:38;102848.47;;;-6.94;74.98
66887;BME280;67239;51.680;5.976;2024-01-10T08:10:07;102847.13;;;-6.89;74.76
66887;BME280;67239;51.680;5.976;2024-01-10T08:12:37;102854.28;;;-6.85;75.11
66887;BME280;67239;51.680;5.976;2024-01-10T08:15:06;102852.59;;;-6.84;75.07
66887;BME280;67239;51.680;5.976;2024-01-10T08:17:33;102864.97;;;-6.79;75.07
66887;BME280;67239;51.680;5.976;2024-01-10T08:20:01;102860.06;;;-6.76;74.85
66887;BME280;67239;51.680;5.976;2024-01-10T08:22:31;102862.19;;;-6.70;74.79
66887;BME280;67239;51.680;5.976;2024-01-10T08:24:58;102859.28;;;-6.63;74.30
66887;BME280;67239;51.680;5.976;2024-01-10T08:27:25;102852.16;;;-6.55;73.88
66887;BME280;67239;51.680;5.976;2024-01-10T08:29:52;102849.38;;;-6.46;73.71
66887;BME280;67239;51.680;5.976;2024-01-10T08:32:19;102846.22;;;-6.42;73.45
66887;BME280;67239;51.680;5.976;2024-01-10T08:34:49;102854.16;;;-6.39;73.26
66887;BME280;67239;51.680;5.976;2024-01-10T08:37:16;102855.16;;;-6.37;73.27
66887;BME280;67239;51.680;5.976;2024-01-10T08:39:44;102852.13;;;-6.31;73.35
66887;BME280;67239;51.680;5.976;2024-01-10T08:42:11;102844.94;;;-6.24;72.62
66887;BME280;67239;51.680;5.976;2024-01-10T08:44:38;102842.94;;;-6.16;72.27
66887;BME280;67239;51.680;5.976;2024-01-10T08:47:05;102843.34;;;-6.10;72.23
66887;BME280;67239;51.680;5.976;2024-01-10T08:49:33;102839.44;;;-6.04;72.04
66887;BME280;67239;51.680;5.976;2024-01-10T08:52:00;102844.31;;;-5.96;71.54
66887;BME280;67239;51.680;5.976;2024-01-10T08:54:28;102856.78;;;-5.88;71.61
66887;BME280;67239;51.680;5.976;2024-01-10T08:56:55;102841.09;;;-5.80;70.82
66887;BME280;67239;51.680;5.976;2024-01-10T08:59:24;102855.38;;;-5.71;70.58
66887;BME280;67239;51.680;5.976;2024-01-10T09:01:51;102849.88;;;-5.64;70.16
66887;BME280;67239;51.680;5.976;2024-01-10T09:04:19;102848.03;;;-5.53;69.04
66887;BME280;67239;51.680;5.976;2024-01-10T09:06:46;102851.81;;;-5.48;69.12
66887;BME280;67239;51.680;5.976;2024-01-10T09:09:14;102842.84;;;-5.41;68.50
66887;BME280;67239;51.680;5.976;2024-01-10T09:11:41;102864.03;;;-5.32;68.21
66887;BME280;67239;51.680;5.976;2024-01-10T09:14:11;102847.22;;;-5.27;68.03
66887;BME280;67239;51.680;5.976;2024-01-10T09:16:39;102853.34;;;-5.25;68.04
66887;BME280;67239;51.680;5.976;2024-01-10T09:19:06;102860.50;;;-5.21;67.91
66887;BME280;67239;51.680;5.976;2024-01-10T09:21:37;102863.56;;;-5.13;67.97
66887;BME280;67239;51.680;5.976;2024-01-10T09:24:05;102847.84;;;-5.04;67.33
66887;BME280;67239;51.680;5.976;2024-01-10T09:26:52;102852.81;;;-4.94;66.75
66887;BME280;67239;51.680;5.976;2024-01-10T09:29:20;102857.38;;;-4.90;66.72
66887;BME280;67239;51.680;5.976;2024-01-10T09:31:48;102861.03;;;-4.86;66.64
66887;BME280;67239;51.680;5.976;2024-01-10T09:34:15;102858.97;;;-4.78;66.85
66887;BME280;67239;51.680;5.976;2024-01-10T09:36:43;102865.50;;;-4.70;66.58
66887;BME280;67239;51.680;5.976;2024-01-10T09:39:10;102866.88;;;-4.62;65.93
66887;BME280;67239;51.680;5.976;2024-01-10T09:41:46;102863.91;;;-4.55;65.52
66887;BME280;67239;51.680;5.976;2024-01-10T09:44:20;102867.97;;;-4.45;64.99
66887;BME280;67239;51.680;5.976;2024-01-10T09:46:54;102870.84;;;-4.40;65.12
66887;BME280;67239;51.680;5.976;2024-01-10T09:49:21;102874.59;;;-4.35;64.32
66887;BME280;67239;51.680;5.976;2024-01-10T09:51:53;102877.38;;;-4.32;65.49
66887;BME280;67239;51.680;5.976;2024-01-10T09:54:28;102876.25;;;-4.22;65.02
66887;BME280;67239;51.680;5.976;2024-01-10T09:56:57;102875.06;;;-4.14;64.30
66887;BME280;67239;51.680;5.976;2024-01-10T09:59:25;102873.06;;;-4.04;64.08
66887;BME280;67239;51.680;5.976;2024-01-10T10:01:52;102869.78;;;-4.02;63.71
66887;BME280;67239;51.680;5.976;2024-01-10T10:04:20;102866.69;;;-3.96;64.08
66887;BME280;67239;51.680;5.976;2024-01-10T10:06:58;102872.50;;;-3.85;63.36
66887;BME280;67239;51.680;5.976;2024-01-10T10:09:28;102872.91;;;-3.79;63.15
66887;BME280;67239;51.680;5.976;2024-01-10T10:11:59;102868.31;;;-3.70;62.46
66887;BME280;67239;51.680;5.976;2024-01-10T10:14:28;102869.66;;;-3.62;61.45
66887;BME280;67239;51.680;5.976;2024-01-10T10:17:13;102879.66;;;-3.53;61.01
66887;BME280;67239;51.680;5.976;2024-01-10T10:19:44;102862.75;;;-3.48;60.33
66887;BME280;67239;51.680;5.976;2024-01-10T10:22:12;102869.34;;;-3.38;60.00
66887;BME280;67239;51.680;5.976;2024-01-10T10:24:40;102866.25;;;-3.32;59.67
66887;BME280;67239;51.680;5.976;2024-01-10T10:27:11;102860.84;;;-3.22;58.21
66887;BME280;67239;51.680;5.976;2024-01-10T10:29:42;102857.00;;;-3.14;57.57
66887;BME280;67239;51.680;5.976;2024-01-10T10:32:14;102855.56;;;-3.08;57.25
66887;BME280;67239;51.680;5.976;2024-01-10T10:34:42;102860.19;;;-3.03;57.24
66887;BME280;67239;51.680;5.976;2024-01-10T10:37:09;102851.94;;;-2.97;57.16
66887;BME280;67239;51.680;5.976;2024-01-10T10:39:36;102847.03;;;-2.92;56.75
66887;BME280;67239;51.680;5.976;2024-01-10T10:42:05;102849.97;;;-2.86;56.03
66887;BME280;67239;51.680;5.976;2024-01-10T10:44:35;102839.19;;;-2.79;56.19
66887;BME280;67239;51.680;5.976;2024-01-10T10:47:09;102839.63;;;-2.71;56.25
66887;BME280;67239;51.680;5.976;2024-01-10T10:49:47;102837.38;;;-2.65;55.82
66887;BME280;67239;51.680;5.976;2024-01-10T10:52:21;102838.69;;;-2.57;55.45
66887;BME280;67239;51.680;5.976;2024-01-10T10:54:50;102844.13;;;-2.52;55.07
66887;BME280;67239;51.680;5.976;2024-01-10T10:57:25;102836.00;;;-2.43;54.58
66887;BME280;67239;51.680;5.976;2024-01-10T10:59:53;102828.44;;;-2.40;54.25
66887;BME280;67239;51.680;5.976;2024-01-10T11:02:22;102831.25;;;-2.36;54.42
66887;BME280;67239;51.680;5.976;2024-01-10T11:04:56;102826.50;;;-2.28;53.75
66887;BME280;67239;51.680;5.976;2024-01-10T11:07:26;102827.66;;;-2.23;54.04
66887;BME280;67239;51.680;5.976;2024-01-10T11:09:54;102830.56;;;-2.16;53.13
66887;BME280;67239;51.680;5.976;2024-01-10T11:21:34;102820.25;;;-1.83;53.26
66887;BME280;67239;51.680;5.976;2024-01-10T11:24:04;102816.34;;;-1.75;51.68
66887;BME280;67239;51.680;5.976;2024-01-10T11:26:33;102810.44;;;-1.73;52.11
66887;BME280;67239;51.680;5.976;2024-01-10T11:29:00;102813.38;;;-1.66;52.00
66887;BME280;67239;51.680;5.976;2024-01-10T11:31:29;102817.25;;;-1.58;51.79
66887;BME280;67239;51.680;5.976;2024-01-10T11:34:00;102818.38;;;-1.53;51.86
66887;BME280;67239;51.680;5.976;2024-01-10T11:36:29;102810.00;;;-1.47;50.87
66887;BME280;67239;51.680;5.976;2024-01-10T11:39:03;102818.09;;;-1.41;50.69
66887;BME280;67239;51.680;5.976;2024-01-10T11:41:36;102820.03;;;-1.37;50.45
66887;BME280;67239;51.680;5.976;2024-01-10T11:46:41;102811.63;;;-1.33;51.31
66887;BME280;67239;51.680;5.976;2024-01-10T11:49:10;102806.81;;;-1.25;50.31
66887;BME280;67239;51.680;5.976;2024-01-10T11:51:42;102822.59;;;-1.20;50.42
66887;BME280;67239;51.680;5.976;2024-01-10T11:54:39;102813.44;;;-1.14;50.71
66887;BME280;67239;51.680;5.976;2024-01-10T11:57:18;102805.97;;;-1.07;50.16
66887;BME280;67239;51.680;5.976;2024-01-10T11:59:45;102806.13;;;-1.04;50.53
66887;BME280;67239;51.680;5.976;2024-01-10T12:02:13;102803.00;;;-0.97;50.05
66887;BME280;67239;51.680;5.976;2024-01-10T12:04:42;102806.84;;;-0.89;50.37
66887;BME280;67239;51.680;5.976;2024-01-10T12:07:18;102802.34;;;-0.75;49.00
66887;BME280;67239;51.680;5.976;2024-01-10T12:09:47;102796.56;;;-0.69;48.47
66887;BME280;67239;51.680;5.976;2024-01-10T12:12:15;102807.00;;;-0.68;48.21
66887;BME280;67239;51.680;5.976;2024-01-10T12:14:43;102797.38;;;-0.70;48.93
66887;BME280;67239;51.680;5.976;2024-01-10T12:17:11;102792.28;;;-0.69;48.92
66887;BME280;67239;51.680;5.976;2024-01-10T12:19:38;102787.22;;;-0.66;49.57
66887;BME280;67239;51.680;5.976;2024-01-10T12:22:05;102787.44;;;-0.61;48.68
66887;BME280;67239;51.680;5.976;2024-01-10T12:24:43;102797.00;;;-0.60;48.45
66887;BME280;67239;51.680;5.976;2024-01-10T12:27:19;102795.38;;;-0.58;48.39
66887;BME280;67239;51.680;5.976;2024-01-10T12:29:52;102793.81;;;-0.54;48.34
66887;BME280;67239;51.680;5.976;2024-01-10T12:32:21;102792.88;;;-0.56;48.31
66887;BME280;67239;51.680;5.976;2024-01-10T12:35:02;102794.81;;;-0.51;48.06
66887;BME280;67239;51.680;5.976;2024-01-10T12:37:31;102793.19;;;-0.49;48.05
66887;BME280;67239;51.680;5.976;2024-01-10T12:39:59;102788.13;;;-0.47;48.04
66887;BME280;67239;51.680;5.976;2024-01-10T12:42:26;102788.31;;;-0.42;48.04
66887;BME280;67239;51.680;5.976;2024-01-10T12:44:54;102791.03;;;-0.39;48.48
66887;BME280;67239;51.680;5.976;2024-01-10T12:47:22;102786.97;;;-0.34;47.88
66887;BME280;67239;51.680;5.976;2024-01-10T12:49:51;102787.03;;;-0.33;47.62
66887;BME280;67239;51.680;5.976;2024-01-10T12:52:18;102781.25;;;-0.27;47.86
66887;BME280;67239;51.680;5.976;2024-01-10T12:54:51;102786.56;;;-0.24;47.85
66887;BME280;67239;51.680;5.976;2024-01-10T12:57:20;102791.22;;;-0.17;47.32
66887;BME280;67239;51.680;5.976;2024-01-10T12:59:47;102796.53;;;-0.13;46.99
66887;BME280;67239;51.680;5.976;2024-01-10T13:02:14;102792.22;;;-0.13;46.69
66887;BME280;67239;51.680;5.976;2024-01-10T13:04:41;102788.91;;;-0.10;46.43
66887;BME280;67239;51.680;5.976;2024-01-10T13:07:08;102788.16;;;-0.08;46.77
66887;BME280;67239;51.680;5.976;2024-01-10T13:09:35;102790.00;;;-0.05;47.09
66887;BME280;67239;51.680;5.976;2024-01-10T13:12:04;102790.13;;;-0.02;47.34